METAR Data
IDs: Format: Raw Decoded Include TAF

Data at: 1704 UTC 03 Dec 2021

KGCD 031655Z AUTO 00000KT 10SM CLR 01/00 A3023 RMK AO2 T00071001
KGCD 031635Z AUTO 00000KT 10SM CLR 00/00 A3023 RMK AO2 T00031001
KGCD 031615Z AUTO 27003KT 10SM CLR 00/00 A3023 RMK AO2 T00031002
KGCD 031555Z AUTO 21003KT 10SM CLR 00/M02 A3022 RMK AO2 T00011017
KGCD 031535Z AUTO 00000KT 10SM CLR 01/M01 A3021 RMK AO2 T00101007
KGCD 031515Z AUTO 10003KT 10SM CLR 01/M01 A3020 RMK AO2 T00061011
KGCD 031455Z AUTO 11004KT 10SM CLR 00/M01 A3020 RMK AO2 T10021012
KGCD 031435Z AUTO 09006KT 10SM CLR 00/M01 A3020 RMK AO2 T00011009
KGCD 031415Z AUTO 12007KT 10SM CLR 00/M01 A3020 RMK AO2 T00001006
KGCD 031355Z AUTO 09007KT 10SM CLR 00/M01 A3020 RMK AO2 T10021007
KGCD 031335Z AUTO 11008KT 10SM CLR 00/M01 A3020 RMK AO2 T00021007
KGCD 031315Z AUTO 10006KT 10SM CLR 00/00 A3020 RMK AO2 T00021005
KGCD 031255Z AUTO 10007KT 10SM CLR 00/00 A3021 RMK AO2 T00011002
KGCD 031235Z AUTO 09008KT 10SM CLR 00/00 A3021 RMK AO2 T00001005
KGCD 031215Z AUTO 11007KT 10SM CLR 00/00 A3021 RMK AO2 T00011003
KGCD 031155Z AUTO 10006KT 10SM CLR 00/00 A3021 RMK AO2 T00020000 10029 20001
KGCD 031135Z AUTO 11006KT 10SM CLR 01/00 A3022 RMK AO2 T00061003
KGCD 031115Z AUTO 09004KT 10SM CLR 01/00 A3023 RMK AO2 T00061001
KGCD 031055Z AUTO 00000KT 10SM CLR 01/00 A3023 RMK AO2 T00110003
KGCD 031035Z AUTO 12005KT 10SM CLR 01/00 A3024 RMK AO2 T00060000
KGCD 031015Z AUTO 12004KT 10SM CLR 01/00 A3023 RMK AO2 T00120000
KGCD 030955Z AUTO 11004KT 10SM CLR 01/00 A3022 RMK AO2 T00140000
KGCD 030935Z AUTO 12005KT 10SM CLR 01/00 A3021 RMK AO2 T00070001
KGCD 030915Z AUTO 11005KT 10SM CLR 01/00 A3022 RMK AO2 T00060001
KGCD 030855Z AUTO 11006KT 10SM CLR 01/00 A3022 RMK AO2 T00140003
KGCD 030835Z AUTO 12006KT 10SM CLR 02/00 A3021 RMK AO2 T00150003
KGCD 030815Z AUTO 12006KT 10SM CLR 02/01 A3022 RMK AO2 T00170005
KGCD 030755Z AUTO 11004KT 10SM CLR 01/01 A3022 RMK AO2 T00110005 401110010
KGCD 030735Z AUTO 11005KT 10SM CLR 02/01 A3023 RMK AO2 T00160006
KGCD 030715Z AUTO 10006KT 10SM CLR 02/01 A3023 RMK AO2 T00210010
KGCD 030655Z AUTO 10006KT 10SM CLR 02/01 A3023 RMK AO2 T00210011
KGCD 030635Z AUTO 12006KT 10SM CLR 03/02 A3023 RMK AO2 T00280015
KGCD 030615Z AUTO 11004KT 10SM CLR 02/01 A3023 RMK AO2 T00200010
KGCD 030555Z AUTO 13003KT 10SM CLR 02/01 A3023 RMK AO2 T00210011 10085 20021
KGCD 030535Z AUTO 11004KT 10SM CLR 03/02 A3022 RMK AO2 T00310016
KGCD 030515Z AUTO 13006KT 10SM CLR 04/02 A3022 RMK AO2 T00370020
KGCD 030455Z AUTO 11007KT 10SM CLR 03/02 A3022 RMK AO2 T00310022
KGCD 030435Z AUTO 10005KT 10SM CLR 03/02 A3022 RMK AO2 T00290021
KGCD 030415Z AUTO 11005KT 10SM CLR 03/01 A3022 RMK AO2 T00260013
KGCD 030355Z AUTO 00000KT 10SM CLR 05/03 A3021 RMK AO2 T00520029
KGCD 030335Z AUTO 00000KT 10SM CLR 05/03 A3021 RMK AO2 T00500027
KGCD 030315Z AUTO 21003KT 10SM CLR 05/03 A3022 RMK AO2 T00450025
KGCD 030255Z AUTO 26003KT 10SM CLR 05/03 A3021 RMK AO2 T00520029
KGCD 030235Z AUTO 00000KT 10SM CLR 07/03 A3020 RMK AO2 T00650032
KGCD 030215Z AUTO 27003KT 10SM VCTS CLR 07/03 A3021 RMK AO2 T00650030
KGCD 030155Z AUTO 28004KT 10SM SCT034 SCT043 07/03 A3021 RMK AO2 T00700032
KGCD 030135Z AUTO 23005KT 10SM BKN034 OVC044 07/04 A3021 RMK AO2 T00710044
KGCD 030115Z AUTO 26004KT 10SM SCT034 BKN046 07/04 A3021 RMK AO2 T00670043
KGCD 030055Z AUTO 24004KT 10SM CLR 08/04 A3020 RMK AO2 T00750044
KGCD 030035Z AUTO 25003KT 10SM CLR 08/05 A3019 RMK AO2 T00750046
KGCD 030015Z AUTO 26004KT 10SM CLR 08/05 A3019 RMK AO2 T00800047
KGCD 022355Z AUTO 26003KT 10SM CLR 09/05 A3018 RMK AO2 T00850048 10111 20060
KGCD 022335Z AUTO 27004KT 10SM CLR 10/05 A3017 RMK AO2 T00950050
KGCD 022315Z AUTO 27004KT 10SM CLR 10/05 A3018 RMK AO2 T01030052
KGCD 022255Z AUTO 27006KT 10SM CLR 10/05 A3017 RMK AO2 T00990052
KGCD 022235Z AUTO 26005KT 10SM CLR 10/05 A3017 RMK AO2 T00970050
KGCD 022215Z AUTO 26006KT 10SM CLR 10/05 A3018 RMK AO2 T01000050
KGCD 022155Z AUTO 25006KT 10SM CLR 11/05 A3018 RMK AO2 T01060051
KGCD 022135Z AUTO 25006KT 10SM CLR 11/05 A3018 RMK AO2 T01070052
KGCD 022115Z AUTO 26007KT 10SM SCT039 10/05 A3019 RMK AO2 T01030051
KGCD 022055Z AUTO 27006KT 10SM BKN039 10/05 A3019 RMK AO2 T00990048
KGCD 022035Z AUTO 25007KT 10SM CLR 09/05 A3020 RMK AO2 T00940046
KGCD 022015Z AUTO 28003KT 10SM CLR 09/04 A3020 RMK AO2 T00880044
KGCD 021955Z AUTO 27007KT 10SM CLR 09/04 A3020 RMK AO2 T00870044
KGCD 021935Z AUTO 25006KT 10SM CLR 08/04 A3021 RMK AO2 T00840042
KGCD 021915Z AUTO 29008KT 10SM SCT046 09/04 A3021 RMK AO2 T00890043
KGCD 021855Z AUTO 26006KT 10SM CLR 07/04 A3021 RMK AO2 T00730037
KGCD 021835Z AUTO 29006KT 10SM CLR 06/03 A3020 RMK AO2 T00610032
KGCD 021815Z AUTO 31004KT 10SM CLR 08/04 A3019 RMK AO2 T00840041
KGCD 021755Z AUTO 00000KT 10SM CLR 08/04 A3019 RMK AO2 T00790038 10087 20035
KGCD 021735Z AUTO 09004KT 10SM CLR 09/04 A3019 RMK AO2 T00850035
KGCD 021715Z AUTO 12010G15KT 10SM CLR 07/04 A3017 RMK AO2 T00710035
KGCD 021655Z AUTO 14011KT 10SM CLR 08/03 A3018 RMK AO2 T00760028
KGCD 021635Z AUTO 16010KT 10SM CLR 07/03 A3018 RMK AO2 T00680026
KGCD 021615Z AUTO 14006G14KT 10SM CLR 08/03 A3019 RMK AO2 T00760025
KGCD 021555Z AUTO 17010G14KT 10SM CLR 07/02 A3019 RMK AO2 T00710022
KGCD 021535Z AUTO 00000KT 10SM CLR 04/02 A3018 RMK AO2 T00430021
KGCD 021515Z AUTO 14007KT 10SM CLR 06/02 A3017 RMK AO2 T00610020
KGCD 021455Z AUTO 14006KT 10SM CLR 05/02 A3017 RMK AO2 T00510019
KGCD 021435Z AUTO 14008KT 10SM CLR 05/02 A3017 RMK AO2 T00470017
KGCD 021415Z AUTO 12006KT 10SM CLR 05/02 A3017 RMK AO2 T00450016
KGCD 021355Z AUTO 11006KT 10SM CLR 04/02 A3016 RMK AO2 T00390018
KGCD 021335Z AUTO 11008KT 10SM CLR 04/03 A3016 RMK AO2 T00380025
KGCD 021315Z AUTO 10007KT 10SM CLR 04/02 A3016 RMK AO2 T00390023
KGCD 021255Z AUTO 11008KT 10SM CLR 04/03 A3017 RMK AO2 T00370028
KGCD 021235Z AUTO 11008KT 10SM CLR 04/03 A3017 RMK AO2 T00430029
KGCD 021215Z AUTO 13009KT 10SM CLR 05/02 A3016 RMK AO2 T00460020
KGCD 021155Z AUTO 13005KT 10SM CLR 05/02 A3016 RMK AO2 T00480020 10118 20042
KGCD 021135Z AUTO 14006KT 10SM CLR 05/02 A3017 RMK AO2 T00540020
KGCD 021110Z AUTO 00000KT 10SM CLR 05/03 A3017 RMK AO2 T00510025
KGCD 021055Z AUTO 12004KT 10SM CLR 05/03 A3018 RMK AO2 T00540030
KGCD 021035Z AUTO 11004KT 10SM CLR 05/04 A3018 RMK AO2 T00500035
KGCD 021015Z AUTO 11004KT 10SM CLR 05/03 A3018 RMK AO2 T00500032
KGCD 020950Z AUTO 12004KT 10SM CLR 05/03 A3018 RMK AO2 T00460034
KGCD 020935Z AUTO 06004KT 10SM CLR 05/04 A3017 RMK AO2 T00450035
KGCD 020915Z AUTO 00000KT 10SM CLR 06/04 A3017 RMK AO2 T00550039
KGCD 020855Z AUTO 24003KT 10SM CLR 06/04 A3019 RMK AO2 T00590039
KGCD 020835Z AUTO 00000KT 10SM CLR 06/04 A3019 RMK AO2 T00630036
KGCD 020815Z AUTO 25003KT 10SM CLR 07/04 A3019 RMK AO2 T00740039
KGCD 020755Z AUTO 00000KT 10SM CLR 08/03 A3019 RMK AO2 T00790034 401750042
KGCD 020735Z AUTO 17005KT 10SM CLR 11/03 A3018 RMK AO2 T01100032
KGCD 020715Z AUTO 12004KT 10SM CLR 11/03 A3018 RMK AO2 T01090034
KGCD 020655Z AUTO 00000KT 10SM CLR 09/04 A3017 RMK AO2 T00870043
KGCD 020635Z AUTO 10003KT 10SM CLR 11/04 A3019 RMK AO2 T01060038
KGCD 020615Z AUTO 11008KT 10SM CLR 09/05 A3018 RMK AO2 T00880050
KGCD 020555Z AUTO 11009KT 090V170 10SM CLR 10/05 A3019 RMK AO2 T00980050 10156 20089
KGCD 020535Z AUTO 10006KT 10SM CLR 10/05 A3019 RMK AO2 T01040054
KGCD 020515Z AUTO 09008KT 10SM CLR 10/06 A3018 RMK AO2 T00980055